sensor_id;sensor_type;location;lat;lon;timestamp;temperature;humidity
20803;DHT22;10562;-33.856;151.182;2023-04-16T00:01:45;21.70;99.90
20803;DHT22;10562;-33.856;151.182;2023-04-16T00:04:16;21.80;99.90
20803;DHT22;10562;-33.856;151.182;2023-04-16T00:06:47;21.80;99.90
20803;DHT22;10562;-33.856;151.182;2023-04-16T00:09:17;21.70;99.90
20803;DHT22;10562;-33.856;151.182;2023-04-16T00:11:48;21.70;99.90
20803;DHT22;10562;-33.856;151.182;2023-04-16T00:14:19;21.70;99.90
20803;DHT22;10562;-33.856;151.182;2023-04-16T00:16:51;21.80;99.90
20803;DHT22;10562;-33.856;151.182;2023-04-16T00:19:22;21.80;99.90
20803;DHT22;10562;-33.856;151.182;2023-04-16T00:21:53;21.80;99.90
20803;DHT22;10562;-33.856;151.182;2023-04-16T00:24:24;21.90;99.90
20803;DHT22;10562;-33.856;151.182;2023-04-16T00:26:55;21.90;99.90
20803;DHT22;10562;-33.856;151.182;2023-04-16T00:29:26;22.00;99.90
20803;DHT22;10562;-33.856;151.182;2023-04-16T00:31:59;22.10;99.90
20803;DHT22;10562;-33.856;151.182;2023-04-16T00:34:30;22.20;99.90
20803;DHT22;10562;-33.856;151.182;2023-04-16T00:37:01;22.30;99.90
20803;DHT22;10562;-33.856;151.182;2023-04-16T00:39:32;22.30;99.90
20803;DHT22;10562;-33.856;151.182;2023-04-16T00:42:02;22.40;99.90
20803;DHT22;10562;-33.856;151.182;2023-04-16T00:44:33;22.40;99.90
20803;DHT22;10562;-33.856;151.182;2023-04-16T00:47:06;22.50;99.90
20803;DHT22;10562;-33.856;151.182;2023-04-16T00:49:37;22.50;99.90
20803;DHT22;10562;-33.856;151.182;2023-04-16T00:52:10;22.60;99.90
20803;DHT22;10562;-33.856;151.182;2023-04-16T00:54:41;22.70;99.90
20803;DHT22;10562;-33.856;151.182;2023-04-16T00:57:13;22.70;99.90
20803;DHT22;10562;-33.856;151.182;2023-04-16T00:59:44;22.80;99.90
20803;DHT22;10562;-33.856;151.182;2023-04-16T01:02:17;22.70;99.90
20803;DHT22;10562;-33.856;151.182;2023-04-16T01:04:48;22.60;99.90
20803;DHT22;10562;-33.856;151.182;2023-04-16T01:07:18;22.70;99.90
20803;DHT22;10562;-33.856;151.182;2023-04-16T01:09:49;22.60;99.90
20803;DHT22;10562;-33.856;151.182;2023-04-16T01:12:20;22.70;99.90
20803;DHT22;10562;-33.856;151.182;2023-04-16T01:14:51;22.70;99.90
20803;DHT22;10562;-33.856;151.182;2023-04-16T01:17:23;22.70;99.90
20803;DHT22;10562;-33.856;151.182;2023-04-16T01:19:57;22.80;99.90
20803;DHT22;10562;-33.856;151.182;2023-04-16T01:22:30;22.80;99.90
20803;DHT22;10562;-33.856;151.182;2023-04-16T01:25:00;22.90;99.90
20803;DHT22;10562;-33.856;151.182;2023-04-16T01:27:31;22.90;99.90
20803;DHT22;10562;-33.856;151.182;2023-04-16T01:30:05;23.00;99.90
20803;DHT22;10562;-33.856;151.182;2023-04-16T01:32:36;23.10;99.90
20803;DHT22;10562;-33.856;151.182;2023-04-16T01:35:07;23.20;99.90
20803;DHT22;10562;-33.856;151.182;2023-04-16T01:37:40;23.40;99.90
20803;DHT22;10562;-33.856;151.182;2023-04-16T01:40:11;23.50;99.90
20803;DHT22;10562;-33.856;151.182;2023-04-16T01:42:42;23.60;99.90
20803;DHT22;10562;-33.856;151.182;2023-04-16T01:45:13;23.60;99.90
20803;DHT22;10562;-33.856;151.182;2023-04-16T01:47:43;23.70;99.90
20803;DHT22;10562;-33.856;151.182;2023-04-16T01:50:15;23.80;99.90
20803;DHT22;10562;-33.856;151.182;2023-04-16T01:52:47;23.80;99.90
20803;DHT22;10562;-33.856;151.182;2023-04-16T01:55:18;23.90;99.90
20803;DHT22;10562;-33.856;151.182;2023-04-16T01:57:55;23.90;99.90
20803;DHT22;10562;-33.856;151.182;2023-04-16T02:00:26;24.00;99.90
20803;DHT22;10562;-33.856;151.182;2023-04-16T02:02:57;24.10;99.90
20803;DHT22;10562;-33.856;151.182;2023-04-16T02:05:30;24.10;99.90
20803;DHT22;10562;-33.856;151.182;2023-04-16T02:08:22;24.10;99.90
20803;DHT22;10562;-33.856;151.182;2023-04-16T02:10:53;24.30;99.90
20803;DHT22;10562;-33.856;151.182;2023-04-16T02:13:24;24.30;99.90
20803;DHT22;10562;-33.856;151.182;2023-04-16T02:15:55;24.30;99.90
20803;DHT22;10562;-33.856;151.182;2023-04-16T02:18:26;24.50;99.90
20803;DHT22;10562;-33.856;151.182;2023-04-16T02:20:58;24.60;99.90
20803;DHT22;10562;-33.856;151.182;2023-04-16T02:23:30;24.80;99.90
20803;DHT22;10562;-33.856;151.182;2023-04-16T02:26:03;25.00;99.90
20803;DHT22;10562;-33.856;151.182;2023-04-16T02:28:34;24.90;99.90
20803;DHT22;10562;-33.856;151.182;2023-04-16T02:31:05;25.00;99.90
20803;DHT22;10562;-33.856;151.182;2023-04-16T02:33:36;25.10;99.90
20803;DHT22;10562;-33.856;151.182;2023-04-16T02:36:07;25.30;99.90
20803;DHT22;10562;-33.856;151.182;2023-04-16T02:38:42;25.10;99.90
20803;DHT22;10562;-33.856;151.182;2023-04-16T02:41:13;25.00;99.90
20803;DHT22;10562;-33.856;151.182;2023-04-16T02:43:45;24.80;99.90
20803;DHT22;10562;-33.856;151.182;2023-04-16T02:46:15;24.70;99.90
20803;DHT22;10562;-33.856;151.182;2023-04-16T02:48:46;24.70;99.90
20803;DHT22;10562;-33.856;151.182;2023-04-16T02:51:17;24.60;99.90
20803;DHT22;10562;-33.856;151.182;2023-04-16T02:53:50;24.80;99.90
20803;DHT22;10562;-33.856;151.182;2023-04-16T02:56:20;24.90;99.90
20803;DHT22;10562;-33.856;151.182;2023-04-16T02:58:51;25.10;99.90
20803;DHT22;10562;-33.856;151.182;2023-04-16T03:01:22;25.10;99.90
20803;DHT22;10562;-33.856;151.182;2023-04-16T03:03:55;25.30;99.90
20803;DHT22;10562;-33.856;151.182;2023-04-16T03:06:26;25.40;99.90
20803;DHT22;10562;-33.856;151.182;2023-04-16T03:09:00;25.20;99.90
20803;DHT22;10562;-33.856;151.182;2023-04-16T03:11:30;25.10;99.90
20803;DHT22;10562;-33.856;151.182;2023-04-16T03:14:01;24.90;99.90
20803;DHT22;10562;-33.856;151.182;2023-04-16T03:16:32;24.80;99.90
20803;DHT22;10562;-33.856;151.182;2023-04-16T03:19:03;24.70;99.90
20803;DHT22;10562;-33.856;151.182;2023-04-16T03:21:34;24.50;99.90
20803;DHT22;10562;-33.856;151.182;2023-04-16T03:24:06;24.40;99.90
20803;DHT22;10562;-33.856;151.182;2023-04-16T03:26:37;24.30;99.90
20803;DHT22;10562;-33.856;151.182;2023-04-16T03:29:08;24.30;99.90
20803;DHT22;10562;-33.856;151.182;2023-04-16T03:31:39;24.30;99.90
20803;DHT22;10562;-33.856;151.182;2023-04-16T03:34:09;24.20;99.90
20803;DHT22;10562;-33.856;151.182;2023-04-16T03:36:40;24.20;99.90
20803;DHT22;10562;-33.856;151.182;2023-04-16T03:39:13;24.20;99.90
20803;DHT22;10562;-33.856;151.182;2023-04-16T03:41:44;24.10;99.90
20803;DHT22;10562;-33.856;151.182;2023-04-16T03:44:14;24.10;99.90
20803;DHT22;10562;-33.856;151.182;2023-04-16T03:46:45;24.10;99.90
20803;DHT22;10562;-33.856;151.182;2023-04-16T03:49:16;24.20;99.90
20803;DHT22;10562;-33.856;151.182;2023-04-16T03:51:47;24.10;99.90
20803;DHT22;10562;-33.856;151.182;2023-04-16T03:54:20;24.20;99.90
20803;DHT22;10562;-33.856;151.182;2023-04-16T03:56:50;24.30;99.90
20803;DHT22;10562;-33.856;151.182;2023-04-16T03:59:21;24.30;99.90
20803;DHT22;10562;-33.856;151.182;2023-04-16T04:01:52;24.20;99.90
20803;DHT22;10562;-33.856;151.182;2023-04-16T04:04:23;24.20;99.90
20803;DHT22;10562;-33.856;151.182;2023-04-16T04:06:54;24.20;99.90
20803;DHT22;10562;-33.856;151.182;2023-04-16T04:09:26;24.20;99.90
20803;DHT22;10562;-33.856;151.182;2023-04-16T04:11:57;24.30;99.90
20803;DHT22;10562;-33.856;151.182;2023-04-16T04:14:28;24.30;99.90
20803;DHT22;10562;-33.856;151.182;2023-04-16T04:16:59;24.50;99.90
20803;DHT22;10562;-33.856;151.182;2023-04-16T04:19:29;24.80;99.90
20803;DHT22;10562;-33.856;151.182;2023-04-16T04:22:00;25.10;99.90
20803;DHT22;10562;-33.856;151.182;2023-04-16T04:24:35;25.40;99.90
20803;DHT22;10562;-33.856;151.182;2023-04-16T04:27:07;25.30;99.90
20803;DHT22;10562;-33.856;151.182;2023-04-16T04:29:38;25.20;99.90
20803;DHT22;10562;-33.856;151.182;2023-04-16T04:32:09;25.40;99.90
20803;DHT22;10562;-33.856;151.182;2023-04-16T04:34:40;25.20;99.90
20803;DHT22;10562;-33.856;151.182;2023-04-16T04:37:11;25.30;99.90
20803;DHT22;10562;-33.856;151.182;2023-04-16T04:39:43;25.20;99.90
20803;DHT22;10562;-33.856;151.182;2023-04-16T04:42:15;25.20;99.90
20803;DHT22;10562;-33.856;151.182;2023-04-16T04:44:46;25.20;99.90
20803;DHT22;10562;-33.856;151.182;2023-04-16T04:47:16;25.20;99.90
20803;DHT22;10562;-33.856;151.182;2023-04-16T04:49:47;25.10;99.90
20803;DHT22;10562;-33.856;151.182;2023-04-16T04:52:18;25.20;99.90
20803;DHT22;10562;-33.856;151.182;2023-04-16T04:54:51;25.20;99.90
20803;DHT22;10562;-33.856;151.182;2023-04-16T04:57:22;25.20;99.90
20803;DHT22;10562;-33.856;151.182;2023-04-16T04:59:52;25.10;99.90
20803;DHT22;10562;-33.856;151.182;2023-04-16T05:02:23;25.10;99.90
20803;DHT22;10562;-33.856;151.182;2023-04-16T05:04:54;25.10;99.90
20803;DHT22;10562;-33.856;151.182;2023-04-16T05:07:25;25.00;99.90
20803;DHT22;10562;-33.856;151.182;2023-04-16T05:09:57;24.90;99.90
20803;DHT22;10562;-33.856;151.182;2023-04-16T05:12:28;25.00;99.90
20803;DHT22;10562;-33.856;151.182;2023-04-16T05:14:59;24.90;99.90
20803;DHT22;10562;-33.856;151.182;2023-04-16T05:17:29;24.90;99.90
20803;DHT22;10562;-33.856;151.182;2023-04-16T05:20:01;25.00;99.90
20803;DHT22;10562;-33.856;151.182;2023-04-16T05:22:33;25.00;99.90
20803;DHT22;10562;-33.856;151.182;2023-04-16T05:25:06;25.00;99.90
20803;DHT22;10562;-33.856;151.182;2023-04-16T05:27:37;25.00;99.90
20803;DHT22;10562;-33.856;151.182;2023-04-16T05:30:08;24.90;99.90
20803;DHT22;10562;-33.856;151.182;2023-04-16T05:32:39;24.90;99.90
20803;DHT22;10562;-33.856;151.182;2023-04-16T05:35:10;24.90;99.90
20803;DHT22;10562;-33.856;151.182;2023-04-16T05:37:41;24.70;99.90
20803;DHT22;10562;-33.856;151.182;2023-04-16T05:40:15;24.70;99.90
20803;DHT22;10562;-33.856;151.182;2023-04-16T05:42:46;24.70;99.90
20803;DHT22;10562;-33.856;151.182;2023-04-16T05:45:17;24.50;99.90
20803;DHT22;10562;-33.856;151.182;2023-04-16T05:47:47;24.40;99.90
20803;DHT22;10562;-33.856;151.182;2023-04-16T05:50:18;24.40;99.90
20803;DHT22;10562;-33.856;151.182;2023-04-16T05:52:49;24.30;99.90
20803;DHT22;10562;-33.856;151.182;2023-04-16T05:55:22;24.40;99.90
20803;DHT22;10562;-33.856;151.182;2023-04-16T05:57:52;24.30;99.90
20803;DHT22;10562;-33.856;151.182;2023-04-16T06:00:23;24.30;99.90
20803;DHT22;10562;-33.856;151.182;2023-04-16T06:02:54;24.30;99.90
20803;DHT22;10562;-33.856;151.182;2023-04-16T06:05:25;24.40;99.90
20803;DHT22;10562;-33.856;151.182;2023-04-16T06:07:57;24.60;99.90
20803;DHT22;10562;-33.856;151.182;2023-04-16T06:10:29;24.80;99.90
20803;DHT22;10562;-33.856;151.182;2023-04-16T06:13:00;24.90;99.90
20803;DHT22;10562;-33.856;151.182;2023-04-16T06:15:31;25.00;99.90
20803;DHT22;10562;-33.856;151.182;2023-04-16T06:18:01;25.00;99.90
20803;DHT22;10562;-33.856;151.182;2023-04-16T06:20:32;25.00;99.90
20803;DHT22;10562;-33.856;151.182;2023-04-16T06:23:03;24.90;99.90
20803;DHT22;10562;-33.856;151.182;2023-04-16T06:25:36;25.10;99.90
20803;DHT22;10562;-33.856;151.182;2023-04-16T06:28:09;25.20;99.90
20803;DHT22;10562;-33.856;151.182;2023-04-16T06:30:40;25.10;99.90
20803;DHT22;10562;-33.856;151.182;2023-04-16T06:33:11;24.80;99.90
20803;DHT22;10562;-33.856;151.182;2023-04-16T06:35:42;24.80;99.90
20803;DHT22;10562;-33.856;151.182;2023-04-16T06:38:12;24.70;99.90
20803;DHT22;10562;-33.856;151.182;2023-04-16T06:40:45;24.70;99.90
20803;DHT22;10562;-33.856;151.182;2023-04-16T06:43:16;24.60;99.90
20803;DHT22;10562;-33.856;151.182;2023-04-16T06:45:47;24.50;99.90
20803;DHT22;10562;-33.856;151.182;2023-04-16T06:48:18;24.00;99.90
20803;DHT22;10562;-33.856;151.182;2023-04-16T06:50:49;23.50;99.90
20803;DHT22;10562;-33.856;151.182;2023-04-16T06:53:20;23.00;99.90
20803;DHT22;10562;-33.856;151.182;2023-04-16T06:55:53;22.70;99.90
20803;DHT22;10562;-33.856;151.182;2023-04-16T06:58:24;22.30;99.90
20803;DHT22;10562;-33.856;151.182;2023-04-16T07:00:54;22.10;99.90
20803;DHT22;10562;-33.856;151.182;2023-04-16T07:03:25;21.80;99.90
20803;DHT22;10562;-33.856;151.182;2023-04-16T07:05:56;21.60;99.90
20803;DHT22;10562;-33.856;151.182;2023-04-16T07:08:27;21.50;99.90
20803;DHT22;10562;-33.856;151.182;2023-04-16T07:11:00;21.40;99.90
20803;DHT22;10562;-33.856;151.182;2023-04-16T07:13:31;21.30;99.90
20803;DHT22;10562;-33.856;151.182;2023-04-16T07:16:02;21.10;99.90
20803;DHT22;10562;-33.856;151.182;2023-04-16T07:18:32;21.00;99.90
20803;DHT22;10562;-33.856;151.182;2023-04-16T07:21:04;20.90;99.90
20803;DHT22;10562;-33.856;151.182;2023-04-16T07:23:35;20.70;99.90
20803;DHT22;10562;-33.856;151.182;2023-04-16T07:26:07;20.70;99.90
20803;DHT22;10562;-33.856;151.182;2023-04-16T07:28:41;20.50;99.90
20803;DHT22;10562;-33.856;151.182;2023-04-16T07:31:12;20.50;99.90
20803;DHT22;10562;-33.856;151.182;2023-04-16T07:33:45;20.30;99.90
20803;DHT22;10562;-33.856;151.182;2023-04-16T07:36:16;20.30;99.90
20803;DHT22;10562;-33.856;151.182;2023-04-16T07:38:47;20.30;99.90
20803;DHT22;10562;-33.856;151.182;2023-04-16T07:41:20;20.30;99.90
20803;DHT22;10562;-33.856;151.182;2023-04-16T07:43:51;20.20;99.90
20803;DHT22;10562;-33.856;151.182;2023-04-16T07:46:22;20.00;99.90
20803;DHT22;10562;-33.856;151.182;2023-04-16T07:48:53;19.90;99.90
20803;DHT22;10562;-33.856;151.182;2023-04-16T07:51:24;19.80;99.90
20803;DHT22;10562;-33.856;151.182;2023-04-16T07:53:55;19.80;99.90
20803;DHT22;10562;-33.856;151.182;2023-04-16T07:56:28;19.70;99.90
20803;DHT22;10562;-33.856;151.182;2023-04-16T07:58:59;19.60;99.90
20803;DHT22;10562;-33.856;151.182;2023-04-16T08:01:30;19.50;99.90
20803;DHT22;10562;-33.856;151.182;2023-04-16T08:04:01;19.50;99.90
20803;DHT22;10562;-33.856;151.182;2023-04-16T08:06:32;19.60;99.90
20803;DHT22;10562;-33.856;151.182;2023-04-16T08:09:03;19.50;99.90
20803;DHT22;10562;-33.856;151.182;2023-04-16T08:11:35;19.60;99.90
20803;DHT22;10562;-33.856;151.182;2023-04-16T08:14:06;19.60;99.90
20803;DHT22;10562;-33.856;151.182;2023-04-16T08:16:37;19.60;99.90
20803;DHT22;10562;-33.856;151.182;2023-04-16T08:19:08;19.50;99.90
20803;DHT22;10562;-33.856;151.182;2023-04-16T08:21:39;19.40;99.90
20803;DHT22;10562;-33.856;151.182;2023-04-16T08:24:10;19.40;99.90
20803;DHT22;10562;-33.856;151.182;2023-04-16T08:26:43;19.30;99.90
20803;DHT22;10562;-33.856;151.182;2023-04-16T08:29:13;19.30;99.90
20803;DHT22;10562;-33.856;151.182;2023-04-16T08:31:44;19.30;99.90
20803;DHT22;10562;-33.856;151.182;2023-04-16T08:34:15;19.10;99.90
20803;DHT22;10562;-33.856;151.182;2023-04-16T08:36:46;19.00;99.90
20803;DHT22;10562;-33.856;151.182;2023-04-16T08:39:17;18.90;99.90
20803;DHT22;10562;-33.856;151.182;2023-04-16T08:41:50;19.00;99.90
20803;DHT22;10562;-33.856;151.182;2023-04-16T08:44:26;18.90;99.90
20803;DHT22;10562;-33.856;151.182;2023-04-16T08:46:57;18.90;99.90
20803;DHT22;10562;-33.856;151.182;2023-04-16T08:49:28;18.70;99.90
20803;DHT22;10562;-33.856;151.182;2023-04-16T08:52:01;18.60;99.90
20803;DHT22;10562;-33.856;151.182;2023-04-16T08:54:41;18.50;99.90
20803;DHT22;10562;-33.856;151.182;2023-04-16T08:57:19;18.40;99.90
20803;DHT22;10562;-33.856;151.182;2023-04-16T08:59:54;18.20;99.90
20803;DHT22;10562;-33.856;151.182;2023-04-16T09:02:26;18.10;99.90
20803;DHT22;10562;-33.856;151.182;2023-04-16T09:05:00;18.00;99.90
20803;DHT22;10562;-33.856;151.182;2023-04-16T09:07:33;17.90;99.90
20803;DHT22;10562;-33.856;151.182;2023-04-16T09:10:06;17.80;99.90
20803;DHT22;10562;-33.856;151.182;2023-04-16T09:12:40;17.70;99.90
20803;DHT22;10562;-33.856;151.182;2023-04-16T09:15:12;17.60;99.90
20803;DHT22;10562;-33.856;151.182;2023-04-16T09:17:43;17.50;99.90
20803;DHT22;10562;-33.856;151.182;2023-04-16T09:20:14;17.40;99.90
20803;DHT22;10562;-33.856;151.182;2023-04-16T09:22:45;17.40;99.90
20803;DHT22;10562;-33.856;151.182;2023-04-16T09:25:16;17.60;99.90
20803;DHT22;10562;-33.856;151.182;2023-04-16T09:27:49;17.60;99.90
20803;DHT22;10562;-33.856;151.182;2023-04-16T09:30:21;17.90;99.90
20803;DHT22;10562;-33.856;151.182;2023-04-16T09:33:12;18.20;99.90
20803;DHT22;10562;-33.856;151.182;2023-04-16T09:35:47;18.20;99.90
20803;DHT22;10562;-33.856;151.182;2023-04-16T09:38:19;18.40;99.90
20803;DHT22;10562;-33.856;151.182;2023-04-16T09:41:05;18.40;99.90
20803;DHT22;10562;-33.856;151.182;2023-04-16T09:43:39;18.20;99.90
20803;DHT22;10562;-33.856;151.182;2023-04-16T09:46:11;18.10;99.90
20803;DHT22;10562;-33.856;151.182;2023-04-16T09:48:45;17.80;99.90
20803;DHT22;10562;-33.856;151.182;2023-04-16T09:51:16;17.70;99.90
20803;DHT22;10562;-33.856;151.182;2023-04-16T09:53:47;17.60;99.90
20803;DHT22;10562;-33.856;151.182;2023-04-16T09:56:24;17.40;99.90
20803;DHT22;10562;-33.856;151.182;2023-04-16T09:58:59;17.20;99.90
20803;DHT22;10562;-33.856;151.182;2023-04-16T10:01:30;17.20;99.90
20803;DHT22;10562;-33.856;151.182;2023-04-16T10:04:01;17.00;99.90
20803;DHT22;10562;-33.856;151.182;2023-04-16T10:06:35;17.00;99.90
20803;DHT22;10562;-33.856;151.182;2023-04-16T10:09:08;17.00;99.90
20803;DHT22;10562;-33.856;151.182;2023-04-16T10:11:39;16.90;99.90
20803;DHT22;10562;-33.856;151.182;2023-04-16T10:14:12;16.90;99.90
20803;DHT22;10562;-33.856;151.182;2023-04-16T10:16:43;17.00;99.90
20803;DHT22;10562;-33.856;151.182;2023-04-16T10:19:14;16.90;99.90
20803;DHT22;10562;-33.856;151.182;2023-04-16T10:21:46;16.80;99.90
20803;DHT22;10562;-33.856;151.182;2023-04-16T10:24:18;16.90;99.90
20803;DHT22;10562;-33.856;151.182;2023-04-16T10:26:52;17.10;99.90
20803;DHT22;10562;-33.856;151.182;2023-04-16T10:29:27;17.30;99.90
20803;DHT22;10562;-33.856;151.182;2023-04-16T10:31:59;17.20;99.90
20803;DHT22;10562;-33.856;151.182;2023-04-16T10:34:31;17.10;99.90
20803;DHT22;10562;-33.856;151.182;2023-04-16T10:37:02;17.30;99.90
20803;DHT22;10562;-33.856;151.182;2023-04-16T10:39:35;17.20;99.90
20803;DHT22;10562;-33.856;151.182;2023-04-16T10:45:06;17.10;99.90
20803;DHT22;10562;-33.856;151.182;2023-04-16T10:47:47;17.00;99.90
20803;DHT22;10562;-33.856;151.182;2023-04-16T10:50:20;16.90;99.90
20803;DHT22;10562;-33.856;151.182;2023-04-16T10:53:20;16.90;99.90
20803;DHT22;10562;-33.856;151.182;2023-04-16T10:56:22;16.90;99.90
20803;DHT22;10562;-33.856;151.182;2023-04-16T10:58:53;16.80;99.90
20803;DHT22;10562;-33.856;151.182;2023-04-16T11:01:32;16.70;99.90
20803;DHT22;10562;-33.856;151.182;2023-04-16T11:04:27;16.70;99.90
20803;DHT22;10562;-33.856;151.182;2023-04-16T11:07:06;16.60;99.90
20803;DHT22;10562;-33.856;151.182;2023-04-16T11:09:53;16.60;99.90
20803;DHT22;10562;-33.856;151.182;2023-04-16T11:12:25;16.60;99.90
20803;DHT22;10562;-33.856;151.182;2023-04-16T11:14:59;16.60;99.90
20803;DHT22;10562;-33.856;151.182;2023-04-16T11:17:38;16.50;99.90
20803;DHT22;10562;-33.856;151.182;2023-04-16T11:20:15;16.50;99.90
20803;DHT22;10562;-33.856;151.182;2023-04-16T11:22:46;16.60;99.90
20803;DHT22;10562;-33.856;151.182;2023-04-16T11:25:20;16.70;99.90
20803;DHT22;10562;-33.856;151.182;2023-04-16T11:27:52;16.70;99.90
20803;DHT22;10562;-33.856;151.182;2023-04-16T11:30:29;16.60;99.90
20803;DHT22;10562;-33.856;151.182;2023-04-16T11:33:02;16.50;99.90
20803;DHT22;10562;-33.856;151.182;2023-04-16T11:35:33;16.50;99.90
20803;DHT22;10562;-33.856;151.182;2023-04-16T11:38:04;16.40;99.90
20803;DHT22;10562;-33.856;151.182;2023-04-16T11:40:35;16.40;99.90
20803;DHT22;10562;-33.856;151.182;2023-04-16T11:43:14;16.30;99.90
20803;DHT22;10562;-33.856;151.182;2023-04-16T11:45:56;16.30;99.90
20803;DHT22;10562;-33.856;151.182;2023-04-16T11:48:46;16.20;99.90
20803;DHT22;10562;-33.856;151.182;2023-04-16T11:51:17;16.20;99.90
20803;DHT22;10562;-33.856;151.182;2023-04-16T11:53:50;16.10;99.90
20803;DHT22;10562;-33.856;151.182;2023-04-16T11:56:28;16.10;99.90
20803;DHT22;10562;-33.856;151.182;2023-04-16T11:59:10;16.10;99.90
20803;DHT22;10562;-33.856;151.182;2023-04-16T12:01:45;16.00;99.90
20803;DHT22;10562;-33.856;151.182;2023-04-16T12:04:19;16.10;99.90
20803;DHT22;10562;-33.856;151.182;2023-04-16T12:07:08;16.10;99.90
20803;DHT22;10562;-33.856;151.182;2023-04-16T12:09:39;16.20;99.90
20803;DHT22;10562;-33.856;151.182;2023-04-16T12:12:29;16.20;99.90
20803;DHT22;10562;-33.856;151.182;2023-04-16T12:15:00;16.10;99.90
20803;DHT22;10562;-33.856;151.182;2023-04-16T12:17:32;16.00;99.90
20803;DHT22;10562;-33.856;151.182;2023-04-16T12:20:08;15.90;99.90
20803;DHT22;10562;-33.856;151.182;2023-04-16T12:22:43;15.90;99.90
20803;DHT22;10562;-33.856;151.182;2023-04-16T12:25:15;15.80;99.90
20803;DHT22;10562;-33.856;151.182;2023-04-16T12:27:47;15.70;99.90
20803;DHT22;10562;-33.856;151.182;2023-04-16T12:30:18;15.70;99.90
20803;DHT22;10562;-33.856;151.182;2023-04-16T12:32:50;15.80;99.90
20803;DHT22;10562;-33.856;151.182;2023-04-16T12:35:34;15.80;99.90
20803;DHT22;10562;-33.856;151.182;2023-04-16T12:38:06;15.70;99.90
20803;DHT22;10562;-33.856;151.182;2023-04-16T12:40:37;15.60;99.90
20803;DHT22;10562;-33.856;151.182;2023-04-16T12:43:09;15.60;99.90
20803;DHT22;10562;-33.856;151.182;2023-04-16T12:45:40;15.70;99.90
20803;DHT22;10562;-33.856;151.182;2023-04-16T12:48:11;15.80;99.90
20803;DHT22;10562;-33.856;151.182;2023-04-16T12:50:44;16.00;99.90
20803;DHT22;10562;-33.856;151.182;2023-04-16T12:53:14;16.00;99.90
20803;DHT22;10562;-33.856;151.182;2023-04-16T12:55:45;16.10;99.90
20803;DHT22;10562;-33.856;151.182;2023-04-16T12:58:16;16.20;99.90
20803;DHT22;10562;-33.856;151.182;2023-04-16T13:00:47;16.20;99.90
20803;DHT22;10562;-33.856;151.182;2023-04-16T13:03:18;16.10;99.90
20803;DHT22;10562;-33.856;151.182;2023-04-16T13:05:51;16.20;99.90
20803;DHT22;10562;-33.856;151.182;2023-04-16T13:08:23;16.20;99.90
20803;DHT22;10562;-33.856;151.182;2023-04-16T13:10:54;16.10;99.90
20803;DHT22;10562;-33.856;151.182;2023-04-16T13:13:25;16.00;99.90
20803;DHT22;10562;-33.856;151.182;2023-04-16T13:15:55;15.90;99.90
20803;DHT22;10562;-33.856;151.182;2023-04-16T13:18:26;15.80;99.90
20803;DHT22;10562;-33.856;151.182;2023-04-16T13:20:59;15.80;99.90
20803;DHT22;10562;-33.856;151.182;2023-04-16T13:23:30;15.80;99.90
20803;DHT22;10562;-33.856;151.182;2023-04-16T13:26:00;15.80;99.90
20803;DHT22;10562;-33.856;151.182;2023-04-16T13:28:31;15.60;99.90
20803;DHT22;10562;-33.856;151.182;2023-04-16T13:31:02;15.60;99.90
20803;DHT22;10562;-33.856;151.182;2023-04-16T13:33:33;15.70;99.90
20803;DHT22;10562;-33.856;151.182;2023-04-16T13:36:06;15.70;99.90
20803;DHT22;10562;-33.856;151.182;2023-04-16T13:38:37;15.60;99.90
20803;DHT22;10562;-33.856;151.182;2023-04-16T13:41:08;15.60;99.90
20803;DHT22;10562;-33.856;151.182;2023-04-16T13:43:40;15.60;99.90
20803;DHT22;10562;-33.856;151.182;2023-04-16T13:46:10;15.50;99.90
20803;DHT22;10562;-33.856;151.182;2023-04-16T13:48:41;15.50;99.90
20803;DHT22;10562;-33.856;151.182;2023-04-16T13:51:14;15.50;99.90
20803;DHT22;10562;-33.856;151.182;2023-04-16T13:53:45;15.50;99.90
20803;DHT22;10562;-33.856;151.182;2023-04-16T13:56:16;15.40;99.90
20803;DHT22;10562;-33.856;151.182;2023-04-16T13:58:47;15.40;99.90
20803;DHT22;10562;-33.856;151.182;2023-04-16T14:01:18;15.40;99.90
20803;DHT22;10562;-33.856;151.182;2023-04-16T14:03:50;15.50;99.90
20803;DHT22;10562;-33.856;151.182;2023-04-16T14:06:22;15.40;99.90
20803;DHT22;10562;-33.856;151.182;2023-04-16T14:08:53;15.30;99.90
20803;DHT22;10562;-33.856;151.182;2023-04-16T14:11:24;15.30;99.90
20803;DHT22;10562;-33.856;151.182;2023-04-16T14:13:55;15.30;99.90
20803;DHT22;10562;-33.856;151.182;2023-04-16T14:16:26;15.40;99.90
20803;DHT22;10562;-33.856;151.182;2023-04-16T14:18:57;15.40;99.90
20803;DHT22;10562;-33.856;151.182;2023-04-16T14:21:30;15.30;99.90
20803;DHT22;10562;-33.856;151.182;2023-04-16T14:24:01;15.20;99.90
20803;DHT22;10562;-33.856;151.182;2023-04-16T14:26:32;15.10;99.90
20803;DHT22;10562;-33.856;151.182;2023-04-16T14:29:03;15.10;99.90
20803;DHT22;10562;-33.856;151.182;2023-04-16T14:31:34;15.00;99.90
20803;DHT22;10562;-33.856;151.182;2023-04-16T14:34:05;15.00;99.90
20803;DHT22;10562;-33.856;151.182;2023-04-16T14:36:38;14.90;99.90
20803;DHT22;10562;-33.856;151.182;2023-04-16T14:39:08;15.00;99.90
20803;DHT22;10562;-33.856;151.182;2023-04-16T14:41:39;15.00;99.90
20803;DHT22;10562;-33.856;151.182;2023-04-16T14:44:13;15.00;99.90
20803;DHT22;10562;-33.856;151.182;2023-04-16T14:46:44;14.90;99.90
20803;DHT22;10562;-33.856;151.182;2023-04-16T14:49:15;14.90;99.90
20803;DHT22;10562;-33.856;151.182;2023-04-16T14:51:47;14.80;99.90
20803;DHT22;10562;-33.856;151.182;2023-04-16T14:54:19;14.70;99.90
20803;DHT22;10562;-33.856;151.182;2023-04-16T14:56:50;14.70;99.90
20803;DHT22;10562;-33.856;151.182;2023-04-16T14:59:21;14.70;99.90
20803;DHT22;10562;-33.856;151.182;2023-04-16T15:01:51;14.70;99.90
20803;DHT22;10562;-33.856;151.182;2023-04-16T15:04:22;14.50;99.90
20803;DHT22;10562;-33.856;151.182;2023-04-16T15:06:55;14.40;99.90
20803;DHT22;10562;-33.856;151.182;2023-04-16T15:09:27;14.40;99.90
20803;DHT22;10562;-33.856;151.182;2023-04-16T15:11:57;14.40;99.90
20803;DHT22;10562;-33.856;151.182;2023-04-16T15:14:28;14.50;99.90
20803;DHT22;10562;-33.856;151.182;2023-04-16T15:16:59;14.60;99.90
20803;DHT22;10562;-33.856;151.182;2023-04-16T15:19:30;14.70;99.90
20803;DHT22;10562;-33.856;151.182;2023-04-16T15:22:02;14.70;99.90